createdAt,value
2019-06-20T00:02:26.586Z,99569.73
2019-06-20T00:07:29.641Z,99574.38
2019-06-20T00:12:33.408Z,99602.77
2019-06-20T00:17:35.495Z,99683.06
2019-06-20T00:22:38.651Z,99653.26
2019-06-20T00:27:41.182Z,99684.81
2019-06-20T00:32:43.189Z,99673.90
2019-06-20T00:37:47.181Z,99669.11
2019-06-20T00:42:50.957Z,99666.67
2019-06-20T00:47:53.093Z,99668.31
2019-06-20T00:52:58.858Z,99678.14
2019-06-20T00:58:01.583Z,99700.80
2019-06-20T01:03:03.778Z,99689.33
2019-06-20T01:08:07.324Z,99673.11
2019-06-20T01:13:10.723Z,99694.78
2019-06-20T01:18:13.445Z,99717.27
2019-06-20T01:23:16.123Z,99735.42
2019-06-20T01:28:18.567Z,99766.52
2019-06-20T01:33:22.613Z,99766.09
2019-06-20T01:44:14.258Z,99728.31
2019-06-20T01:49:18.129Z,99642.42
2019-06-20T01:54:20.753Z,99630.05
2019-06-20T01:59:22.684Z,99642.54
2019-06-20T02:04:24.748Z,99634.79
2019-06-20T02:09:29.872Z,99665.69
2019-06-20T02:14:33.533Z,99704.51
2019-06-20T02:19:35.381Z,99709.84
2019-06-20T02:24:37.228Z,99726.15
2019-06-20T02:29:39.051Z,99730.29
2019-06-20T02:34:42.069Z,99729.34
2019-06-20T02:39:43.890Z,99717.22
2019-06-20T02:44:45.855Z,99711.71
2019-06-20T02:49:48.856Z,99705.73
2019-06-20T02:54:50.724Z,99691.08
2019-06-20T02:59:53.113Z,99668.73
2019-06-20T03:04:55.760Z,99660.47
2019-06-20T03:09:57.707Z,99664.58
2019-06-20T03:15:00.279Z,99668.34
2019-06-20T03:20:04.929Z,99650.83
2019-06-20T03:25:07.906Z,99656.36
2019-06-20T03:30:11.237Z,99677.00
2019-06-20T03:35:13.341Z,99680.66
2019-06-20T03:40:16.583Z,99721.67
2019-06-20T03:45:18.508Z,99732.49
2019-06-20T03:50:20.897Z,99728.08
2019-06-20T03:55:23.283Z,99707.89
2019-06-20T04:00:29.095Z,99709.66
2019-06-20T04:05:31.183Z,99730.97
2019-06-20T04:10:33.889Z,99728.27
2019-06-20T04:15:35.848Z,99757.02
2019-06-20T04:20:49.349Z,99811.97
2019-06-20T04:25:51.877Z,99873.14
2019-06-20T04:30:53.744Z,99900.08
2019-06-20T04:37:34.449Z,99924.33
2019-06-20T04:42:36.329Z,99934.70
2019-06-20T04:47:38.149Z,99945.95
2019-06-20T04:52:40.031Z,99940.09
2019-06-20T04:57:41.848Z,99940.23
2019-06-20T05:02:44.994Z,99934.78
2019-06-20T05:07:47.735Z,99919.89
2019-06-20T05:12:49.653Z,99916.27
2019-06-20T05:17:51.567Z,99903.22
2019-06-20T05:22:53.576Z,99903.63
2019-06-20T05:27:55.391Z,99888.51
2019-06-20T05:32:57.193Z,99885.78
2019-06-20T05:37:59.043Z,99875.02
2019-06-20T05:43:01.860Z,99861.12
2019-06-20T05:48:04.023Z,99842.22
2019-06-20T05:53:05.888Z,99842.84
2019-06-20T05:58:07.712Z,99856.94
2019-06-20T06:03:13.464Z,99835.89
2019-06-20T06:08:13.531Z,99857.13
2019-06-20T06:13:15.558Z,99854.86
2019-06-20T06:18:17.526Z,99855.02
2019-06-20T06:23:19.349Z,99879.39
2019-06-20T06:28:21.291Z,99857.52
2019-06-20T06:33:23.248Z,99879.37
2019-06-20T06:38:25.116Z,99875.50
2019-06-20T06:43:26.888Z,99857.90
2019-06-20T06:48:28.712Z,99855.67
2019-06-20T06:53:30.531Z,99851.41
2019-06-20T06:58:32.417Z,99856.53
2019-06-20T07:03:34.299Z,99843.19
2019-06-20T07:08:36.243Z,99852.11
2019-06-20T07:13:38.170Z,99863.25
2019-06-20T07:18:40.002Z,99864.50
2019-06-20T07:23:41.942Z,99865.92
2019-06-20T07:28:56.127Z,99878.14
2019-06-20T07:33:58.093Z,99885.80
2019-06-20T07:39:00.298Z,99877.97
2019-06-20T07:44:02.245Z,99880.64
2019-06-20T07:49:04.481Z,99879.33
2019-06-20T07:54:06.448Z,99866.95
2019-06-20T07:59:08.424Z,99876.48
2019-06-20T08:04:10.449Z,99876.72
2019-06-20T08:09:12.643Z,99872.94
2019-06-20T08:14:15.235Z,99882.59
2019-06-20T08:19:17.104Z,99897.00
2019-06-20T08:24:18.913Z,99906.39
2019-06-20T08:29:21.570Z,99897.19
2019-06-20T08:34:23.448Z,99899.20
2019-06-20T08:39:29.175Z,99888.34
2019-06-20T08:44:29.460Z,99879.61
2019-06-20T08:49:32.543Z,99889.32
2019-06-20T08:54:34.359Z,99883.57
2019-06-20T08:59:36.180Z,99891.80
2019-06-20T09:04:38.218Z,99899.89
2019-06-20T09:09:40.071Z,99892.30
2019-06-20T09:14:43.011Z,99893.22
2019-06-20T09:19:44.882Z,99892.84
2019-06-20T09:24:46.827Z,99894.28
2019-06-20T09:29:50.056Z,99891.81
2019-06-20T09:34:53.024Z,99891.06
2019-06-20T09:39:57.124Z,99894.39
2019-06-20T09:44:59.122Z,99911.97
2019-06-20T09:50:00.970Z,99903.48
2019-06-20T09:55:03.859Z,99901.33
2019-06-20T10:00:10.404Z,99913.17
2019-06-20T10:05:11.040Z,99910.73
2019-06-20T10:10:13.943Z,99917.88
2019-06-20T10:15:20.741Z,99913.75
2019-06-20T10:20:23.779Z,99926.13
2019-06-20T10:25:25.832Z,99915.70
2019-06-20T10:30:28.538Z,99919.02
2019-06-20T10:35:30.556Z,99916.25
2019-06-20T10:40:32.502Z,99925.87
2019-06-20T10:45:35.378Z,99922.00
2019-06-20T10:50:37.740Z,99911.28
2019-06-20T10:55:41.469Z,99924.22
2019-06-20T11:00:44.516Z,99923.34
2019-06-20T11:05:48.145Z,99924.16
2019-06-20T11:10:50.225Z,99929.38
2019-06-20T11:15:52.326Z,99929.94
2019-06-20T11:20:54.217Z,99923.34
2019-06-20T11:25:56.083Z,99927.45
2019-06-20T11:31:00.409Z,99926.59
2019-06-20T11:36:02.715Z,99926.84
2019-06-20T11:41:04.676Z,99927.14
2019-06-20T11:46:06.810Z,99934.89
2019-06-20T11:51:08.740Z,99927.16
2019-06-20T11:56:11.754Z,99922.50
2019-06-20T12:01:13.564Z,99919.39
2019-06-20T12:06:15.374Z,99920.41
2019-06-20T12:11:17.271Z,99922.79
2019-06-20T12:16:19.479Z,99917.86
2019-06-20T12:26:40.652Z,99905.34
2019-06-20T12:31:43.386Z,99906.20
2019-06-20T12:36:46.520Z,99889.92
2019-06-20T12:41:50.096Z,99905.68
2019-06-20T12:46:52.148Z,99904.67
2019-06-20T12:51:54.042Z,99898.34
2019-06-20T12:56:55.891Z,99895.55
2019-06-20T13:01:57.978Z,99897.20
2019-06-20T13:06:59.796Z,99901.26
2019-06-20T13:12:02.252Z,99905.34
2019-06-20T13:17:04.275Z,99915.36
2019-06-20T13:22:06.234Z,99906.44
2019-06-20T13:27:08.032Z,99907.22
2019-06-20T13:32:11.330Z,99918.15
2019-06-20T13:37:15.542Z,99908.41
2019-06-20T13:42:17.260Z,99901.80
2019-06-20T13:47:19.711Z,99900.73
2019-06-20T13:52:21.533Z,99912.31
2019-06-20T13:57:23.385Z,99904.99
2019-06-20T14:02:25.538Z,99896.96
2019-06-20T14:07:27.506Z,99878.57
2019-06-20T14:12:29.949Z,99876.28
2019-06-20T14:17:32.871Z,99881.27
2019-06-20T14:22:34.691Z,99871.94
2019-06-20T14:27:36.820Z,99859.48
2019-06-20T14:32:38.979Z,99877.23
2019-06-20T14:37:43.338Z,99878.23
2019-06-20T14:42:45.957Z,99869.30
2019-06-20T14:47:48.235Z,99873.45
2019-06-20T14:52:52.073Z,99882.84
2019-06-20T14:57:54.767Z,99868.58
2019-06-20T15:02:58.672Z,99858.58
2019-06-20T15:08:01.757Z,99855.16
2019-06-20T15:13:03.914Z,99852.67
2019-06-20T15:18:09.068Z,99848.78
2019-06-20T15:23:15.360Z,99844.88
2019-06-20T15:28:17.238Z,99838.58
2019-06-20T15:33:19.079Z,99846.36
2019-06-20T15:38:21.694Z,99844.03
2019-06-20T15:43:25.853Z,99842.58
2019-06-20T15:48:27.797Z,99844.14
2019-06-20T15:53:29.888Z,99848.07
2019-06-20T15:58:34.177Z,99851.80
2019-06-20T16:03:36.083Z,99841.93
2019-06-20T16:08:37.898Z,99843.70
2019-06-20T16:13:39.901Z,99850.73
2019-06-20T16:18:41.715Z,99857.88
2019-06-20T16:23:43.627Z,99861.00
2019-06-20T16:28:46.506Z,99871.80
2019-06-20T16:33:48.318Z,99871.72
2019-06-20T16:38:50.233Z,99884.70
2019-06-20T16:43:52.867Z,99885.34
2019-06-20T16:48:59.325Z,99889.37
2019-06-20T16:54:02.009Z,99884.22
2019-06-20T16:59:06.283Z,99884.53
2019-06-20T17:04:08.388Z,99883.99
2019-06-20T17:09:10.712Z,99880.06
2019-06-20T17:14:13.030Z,99886.74
2019-06-20T17:19:14.916Z,99876.72
2019-06-20T17:24:17.218Z,99872.58
2019-06-20T17:29:19.264Z,99878.91
2019-06-20T17:34:22.548Z,99894.72
2019-06-20T17:39:24.798Z,99888.36
2019-06-20T17:44:27.704Z,99888.17
2019-06-20T17:49:29.526Z,99888.03
2019-06-20T17:54:33.011Z,99897.55
2019-06-20T17:59:36.874Z,99888.11
2019-06-20T18:04:38.703Z,99892.26
2019-06-20T18:09:40.578Z,99899.95
2019-06-20T18:14:44.785Z,99906.12
2019-06-20T18:19:47.105Z,99915.39
2019-06-20T18:24:49.010Z,99919.73
2019-06-20T18:29:50.939Z,99914.09
2019-06-20T18:35:01.812Z,99925.20
2019-06-20T18:39:56.621Z,99932.13
2019-06-20T18:44:59.232Z,99946.77
2019-06-20T18:50:01.385Z,99965.49
2019-06-20T18:55:04.806Z,99974.02
2019-06-20T19:00:09.710Z,99977.34
2019-06-20T19:05:12.783Z,99967.92
2019-06-20T19:10:20.377Z,99981.11
2019-06-20T19:15:24.043Z,99982.20
2019-06-20T19:20:26.939Z,99982.77
2019-06-20T19:25:28.743Z,99993.22
2019-06-20T19:30:45.645Z,99993.52
2019-06-20T19:35:48.843Z,99990.19
2019-06-20T19:40:53.351Z,100004.22
2019-06-20T19:45:55.425Z,100013.48
2019-06-20T19:50:59.560Z,100026.79
2019-06-20T19:56:03.679Z,100080.84
2019-06-20T20:01:06.578Z,100102.99
2019-06-20T20:06:12.231Z,100083.12
2019-06-20T20:11:20.785Z,100095.38
2019-06-20T20:16:25.683Z,100091.02
2019-06-20T20:21:30.882Z,100083.14
2019-06-20T20:26:33.052Z,100089.34
2019-06-20T20:31:36.642Z,100092.77
2019-06-20T20:36:40.932Z,100084.39
2019-06-20T20:41:46.184Z,100091.55
2019-06-20T20:46:50.430Z,100098.59
2019-06-20T20:51:55.436Z,100093.97
2019-06-20T21:02:32.305Z,100095.09
2019-06-20T21:07:39.229Z,100104.34
2019-06-20T21:12:44.222Z,100101.72
2019-06-20T21:17:47.768Z,100111.44
2019-06-20T21:22:53.225Z,100121.99
2019-06-20T21:27:57.052Z,100122.05
2019-06-20T21:32:58.815Z,100131.28
2019-06-20T21:38:00.637Z,100138.94
2019-06-20T21:43:02.614Z,100144.59
2019-06-20T21:48:06.558Z,100149.73
2019-06-20T21:53:10.748Z,100153.55
2019-06-20T21:58:15.275Z,100142.77
2019-06-20T22:03:19.504Z,100151.59
2019-06-20T22:08:23.443Z,100147.19
2019-06-20T22:13:27.754Z,100153.28
2019-06-20T22:18:33.215Z,100158.86
2019-06-20T22:23:37.894Z,100157.16
2019-06-20T22:28:43.933Z,100162.96
2019-06-20T22:33:47.163Z,100168.23
2019-06-20T22:38:49.723Z,100170.16
2019-06-20T22:43:52.423Z,100181.00
2019-06-20T22:48:54.646Z,100185.33
2019-06-20T22:53:56.798Z,100185.33
2019-06-20T22:58:58.750Z,100184.80
2019-06-20T23:04:01.746Z,100185.00
2019-06-20T23:09:06.200Z,100192.29
2019-06-20T23:14:08.757Z,100187.27
2019-06-20T23:19:10.630Z,100192.16
2019-06-20T23:24:14.406Z,100210.89
2019-06-20T23:29:23.412Z,100210.82
2019-06-20T23:34:25.730Z,100199.91
2019-06-20T23:39:28.670Z,100200.80
2019-06-20T23:44:30.519Z,100202.67
2019-06-20T23:49:32.547Z,100220.05
2019-06-20T23:54:34.509Z,100224.47
2019-06-20T23:59:36.409Z,100220.37
